Venus Seven — H9RN — position and weather

sailwx.info

Track history (hours):
 
Tides and Currents Weather Stations Pressure Air Temp Water Temp Dewpoint Dewpoint Depression Visibility Wind Speed Wind Dir Waves Ship Positions

Venus Seven

Last reported at 2014-Nov-27 22:31 UTC. Time now 2014-Nov-27 23:04 UTC.
Position N 34°38' E 135°25'.

Length 93 m; draft 5.5 m.

Type: Cargo ship. MMSI: 353405000.

Date/timePositionNaut miles runAvg speedWind from/ knotsBaromVisibWave heightAir tempDewpointWater temp
2014-Nov-27 22:31N 34°38' E 135°25'0 0.0
2014-Nov-27 21:25N 34°38' E 135°25'0 0.0
2014-Nov-27 20:31N 34°38' E 135°25'0 0.0
2014-Nov-27 19:31N 34°38' E 135°25'0 0.0
2014-Nov-27 18:25N 34°38' E 135°25'0 0.0
2014-Nov-27 17:31N 34°38' E 135°25'0 0.0
2014-Nov-27 16:31N 34°38' E 135°25'0 0.0
2014-Nov-27 15:31N 34°38' E 135°25'0 0.0
2014-Nov-27 14:31N 34°38' E 135°25'0 0.0
2014-Nov-27 13:31N 34°38' E 135°25'0 0.0
2014-Nov-27 12:31N 34°38' E 135°25'0 0.0
2014-Nov-27 11:30N 34°38' E 135°25'0 0.0
2014-Nov-27 10:12N 34°38' E 135°25'0 0.0
2014-Nov-27 09:30N 34°38' E 135°25'0 0.0
2014-Nov-27 08:30N 34°38' E 135°25'0 0.0
2014-Nov-27 07:30N 34°38' E 135°25'0 0.0
2014-Nov-27 06:30N 34°38' E 135°25'0 0.0
2014-Nov-27 05:24N 34°38' E 135°25'0 0.0
2014-Nov-27 04:30N 34°38' E 135°25'0 0.0
2014-Nov-27 03:30N 34°38' E 135°25'0 0.0
2014-Nov-27 02:24N 34°38' E 135°25'0 0.0
2014-Nov-27 01:30N 34°38' E 135°25'0 0.0
2014-Nov-27 00:30N 34°38' E 135°25'0 0.0
2014-Nov-26 23:30N 34°38' E 135°25'0 0.0
2014-Nov-26 22:30N 34°38' E 135°25'0 0.0
2014-Nov-26 21:24N 34°38' E 135°25'0 0.0
2014-Nov-26 20:30N 34°38' E 135°25'0 0.0
2014-Nov-26 19:24N 34°38' E 135°25'0 0.0
2014-Nov-26 18:30N 34°38' E 135°25'0 0.0
2014-Nov-26 17:24N 34°38' E 135°25'0 0.0
2014-Nov-26 16:30N 34°38' E 135°25'0 0.0
2014-Nov-26 15:30N 34°38' E 135°25'0 0.0
2014-Nov-26 14:30N 34°38' E 135°25'0 0.0
2014-Nov-26 13:30N 34°38' E 135°25'0 0.0
2014-Nov-26 12:18N 34°38' E 135°25'0 0.0
2014-Nov-26 11:30N 34°38' E 135°25'0 0.0
2014-Nov-26 10:23N 34°38' E 135°25'0 0.0
2014-Nov-26 09:29N 34°38' E 135°25'0 0.0
2014-Nov-26 08:32N 34°38' E 135°25'0 0.0
2014-Nov-26 07:32N 34°38' E 135°25'0 0.0
2014-Nov-26 06:32N 34°38' E 135°25'0 0.0
2014-Nov-26 05:32N 34°38' E 135°25'0 0.0
2014-Nov-26 04:32N 34°38' E 135°25'0 0.0
2014-Nov-26 03:26N 34°38' E 135°25'0 0.0
2014-Nov-26 02:32N 34°38' E 135°25'0 0.0
2014-Nov-26 01:32N 34°38' E 135°25'0 0.0
2014-Nov-26 00:32N 34°38' E 135°25'0 0.0
2014-Nov-25 23:32N 34°38' E 135°25'0 0.0
2014-Nov-25 22:32N 34°38' E 135°25'1 1.4
2014-Nov-25 21:33N 34°38' E 135°23'1 0.9
2014-Nov-25 20:31N 34°37' E 135°22'0 0.0
2014-Nov-25 19:31N 34°37' E 135°22'0 0.0
2014-Nov-25 18:31N 34°37' E 135°22'0 0.0
2014-Nov-25 17:31N 34°37' E 135°22'0 0.0
2014-Nov-25 16:31N 34°37' E 135°22'0 0.0
2014-Nov-25 15:31N 34°37' E 135°22'0 0.0
2014-Nov-25 14:31N 34°37' E 135°22'0 0.0
2014-Nov-25 13:30N 34°37' E 135°22'0 0.0
2014-Nov-25 12:30N 34°37' E 135°22'9 9.4
2014-Nov-25 11:33N 34°35' E 135°12'1212.3
2014-Nov-25 10:33N 34°36' E 134°57'  
2014-Nov-18 13:23N 22°43' E 120°08'1113.3
2014-Nov-18 12:34N 22°34' E 120°13'7 0.5
2014-Nov-17 23:14N 22°33' E 120°20'4 6.4
2014-Nov-17 22:33N 22°36' E 120°18'  
Track history (hours):
 
Tides and Currents Weather Stations Pressure Air Temp Water Temp Dewpoint Dewpoint Depression Visibility Wind Speed Wind Dir Waves Ship Positions

Venus Seven

Last reported at 2014-Nov-27 22:31 UTC. Time now 2014-Nov-27 23:04 UTC.
Position N 34°38' E 135°25'.

Length 93 m; draft 5.5 m.

Type: Cargo ship. MMSI: 353405000.

Date/timePositionNaut miles runAvg speedWind from/ knotsBaromVisibWave heightAir tempDewpointWater temp
2014-Nov-27 22:31N 34°38' E 135°25'0 0.0
2014-Nov-27 21:25N 34°38' E 135°25'0 0.0
2014-Nov-27 20:31N 34°38' E 135°25'0 0.0
2014-Nov-27 19:31N 34°38' E 135°25'0 0.0
2014-Nov-27 18:25N 34°38' E 135°25'0 0.0
2014-Nov-27 17:31N 34°38' E 135°25'0 0.0
2014-Nov-27 16:31N 34°38' E 135°25'0 0.0
2014-Nov-27 15:31N 34°38' E 135°25'0 0.0
2014-Nov-27 14:31N 34°38' E 135°25'0 0.0
2014-Nov-27 13:31N 34°38' E 135°25'0 0.0
2014-Nov-27 12:31N 34°38' E 135°25'0 0.0
2014-Nov-27 11:30N 34°38' E 135°25'0 0.0
2014-Nov-27 10:12N 34°38' E 135°25'0 0.0
2014-Nov-27 09:30N 34°38' E 135°25'0 0.0
2014-Nov-27 08:30N 34°38' E 135°25'0 0.0
2014-Nov-27 07:30N 34°38' E 135°25'0 0.0
2014-Nov-27 06:30N 34°38' E 135°25'0 0.0
2014-Nov-27 05:24N 34°38' E 135°25'0 0.0
2014-Nov-27 04:30N 34°38' E 135°25'0 0.0
2014-Nov-27 03:30N 34°38' E 135°25'0 0.0
2014-Nov-27 02:24N 34°38' E 135°25'0 0.0
2014-Nov-27 01:30N 34°38' E 135°25'0 0.0
2014-Nov-27 00:30N 34°38' E 135°25'0 0.0
2014-Nov-26 23:30N 34°38' E 135°25'0 0.0
2014-Nov-26 22:30N 34°38' E 135°25'0 0.0
2014-Nov-26 21:24N 34°38' E 135°25'0 0.0
2014-Nov-26 20:30N 34°38' E 135°25'0 0.0
2014-Nov-26 19:24N 34°38' E 135°25'0 0.0
2014-Nov-26 18:30N 34°38' E 135°25'0 0.0
2014-Nov-26 17:24N 34°38' E 135°25'0 0.0
2014-Nov-26 16:30N 34°38' E 135°25'0 0.0
2014-Nov-26 15:30N 34°38' E 135°25'0 0.0
2014-Nov-26 14:30N 34°38' E 135°25'0 0.0
2014-Nov-26 13:30N 34°38' E 135°25'0 0.0
2014-Nov-26 12:18N 34°38' E 135°25'0 0.0
2014-Nov-26 11:30N 34°38' E 135°25'0 0.0
2014-Nov-26 10:23N 34°38' E 135°25'0 0.0
2014-Nov-26 09:29N 34°38' E 135°25'0 0.0
2014-Nov-26 08:32N 34°38' E 135°25'0 0.0
2014-Nov-26 07:32N 34°38' E 135°25'0 0.0
2014-Nov-26 06:32N 34°38' E 135°25'0 0.0
2014-Nov-26 05:32N 34°38' E 135°25'0 0.0
2014-Nov-26 04:32N 34°38' E 135°25'0 0.0
2014-Nov-26 03:26N 34°38' E 135°25'0 0.0
2014-Nov-26 02:32N 34°38' E 135°25'0 0.0
2014-Nov-26 01:32N 34°38' E 135°25'0 0.0
2014-Nov-26 00:32N 34°38' E 135°25'0 0.0
2014-Nov-25 23:32N 34°38' E 135°25'0 0.0
2014-Nov-25 22:32N 34°38' E 135°25'1 1.4
2014-Nov-25 21:33N 34°38' E 135°23'1 0.9
2014-Nov-25 20:31N 34°37' E 135°22'0 0.0
2014-Nov-25 19:31N 34°37' E 135°22'0 0.0
2014-Nov-25 18:31N 34°37' E 135°22'0 0.0
2014-Nov-25 17:31N 34°37' E 135°22'0 0.0
2014-Nov-25 16:31N 34°37' E 135°22'0 0.0
2014-Nov-25 15:31N 34°37' E 135°22'0 0.0
2014-Nov-25 14:31N 34°37' E 135°22'0 0.0
2014-Nov-25 13:30N 34°37' E 135°22'0 0.0
2014-Nov-25 12:30N 34°37' E 135°22'9 9.4
2014-Nov-25 11:33N 34°35' E 135°12'1212.3
2014-Nov-25 10:33N 34°36' E 134°57'  
2014-Nov-18 13:23N 22°43' E 120°08'1113.3
2014-Nov-18 12:34N 22°34' E 120°13'7 0.5
2014-Nov-17 23:14N 22°33' E 120°20'4 6.4
2014-Nov-17 22:33N 22°36' E 120°18'  

Dump ship's entire track history